sensor_id;sensor_type;location;lat;lon;timestamp;temperature;humidity
67192;HTU21D;54120;53.504;49.426;2023-04-01T00:01:36;4.22;81.01
67192;HTU21D;54120;53.504;49.426;2023-04-01T00:04:02;4.21;81.17
67192;HTU21D;54120;53.504;49.426;2023-04-01T00:06:29;4.19;81.46
67192;HTU21D;54120;53.504;49.426;2023-04-01T00:08:55;4.20;81.46
67192;HTU21D;54120;53.504;49.426;2023-04-01T00:11:21;4.19;81.41
67192;HTU21D;54120;53.504;49.426;2023-04-01T00:13:47;4.22;81.30
67192;HTU21D;54120;53.504;49.426;2023-04-01T00:16:14;4.22;81.55
67192;HTU21D;54120;53.504;49.426;2023-04-01T00:18:40;4.26;81.23
67192;HTU21D;54120;53.504;49.426;2023-04-01T00:21:06;4.27;81.07
67192;HTU21D;54120;53.504;49.426;2023-04-01T00:23:33;4.26;81.75
67192;HTU21D;54120;53.504;49.426;2023-04-01T00:26:03;4.24;81.38
67192;HTU21D;54120;53.504;49.426;2023-04-01T00:28:29;4.24;81.21
67192;HTU21D;54120;53.504;49.426;2023-04-01T00:31:42;4.22;81.17
67192;HTU21D;54120;53.504;49.426;2023-04-01T00:34:09;4.22;81.20
67192;HTU21D;54120;53.504;49.426;2023-04-01T00:36:35;4.20;81.30
67192;HTU21D;54120;53.504;49.426;2023-04-01T00:39:02;4.17;81.76
67192;HTU21D;54120;53.504;49.426;2023-04-01T00:41:28;4.14;81.50
67192;HTU21D;54120;53.504;49.426;2023-04-01T00:44:15;4.14;81.76
67192;HTU21D;54120;53.504;49.426;2023-04-01T00:46:42;4.09;81.77
67192;HTU21D;54120;53.504;49.426;2023-04-01T00:49:08;4.07;81.81
67192;HTU21D;54120;53.504;49.426;2023-04-01T00:51:37;4.04;82.17
67192;HTU21D;54120;53.504;49.426;2023-04-01T00:54:05;3.98;82.65
67192;HTU21D;54120;53.504;49.426;2023-04-01T00:56:36;3.93;82.85
67192;HTU21D;54120;53.504;49.426;2023-04-01T00:59:11;3.92;82.77
67192;HTU21D;54120;53.504;49.426;2023-04-01T01:01:39;3.87;83.04
67192;HTU21D;54120;53.504;49.426;2023-04-01T01:04:06;3.87;82.94
67192;HTU21D;54120;53.504;49.426;2023-04-01T01:07:00;3.80;83.39
67192;HTU21D;54120;53.504;49.426;2023-04-01T01:12:04;3.74;83.74
67192;HTU21D;54120;53.504;49.426;2023-04-01T01:31:37;3.46;84.52
67192;HTU21D;54120;53.504;49.426;2023-04-01T01:37:07;3.46;84.61
67192;HTU21D;54120;53.504;49.426;2023-04-01T01:39:35;3.46;83.91
67192;HTU21D;54120;53.504;49.426;2023-04-01T01:42:05;3.50;83.59
67192;HTU21D;54120;53.504;49.426;2023-04-01T01:44:33;3.50;83.85
67192;HTU21D;54120;53.504;49.426;2023-04-01T01:47:00;3.44;84.26
67192;HTU21D;54120;53.504;49.426;2023-04-01T01:49:27;3.44;84.45
67192;HTU21D;54120;53.504;49.426;2023-04-01T01:51:56;3.38;84.84
67192;HTU21D;54120;53.504;49.426;2023-04-01T01:54:23;3.34;84.78
67192;HTU21D;54120;53.504;49.426;2023-04-01T01:57:03;3.30;85.01
67192;HTU21D;54120;53.504;49.426;2023-04-01T01:59:33;3.29;85.29
67192;HTU21D;54120;53.504;49.426;2023-04-01T02:02:02;3.24;85.77
67192;HTU21D;54120;53.504;49.426;2023-04-01T02:04:41;3.25;85.80
67192;HTU21D;54120;53.504;49.426;2023-04-01T02:07:31;3.21;85.95
67192;HTU21D;54120;53.504;49.426;2023-04-01T02:09:59;3.19;86.12
67192;HTU21D;54120;53.504;49.426;2023-04-01T02:12:26;3.20;86.19
67192;HTU21D;54120;53.504;49.426;2023-04-01T02:15:03;3.20;86.29
67192;HTU21D;54120;53.504;49.426;2023-04-01T02:17:32;3.16;86.56
67192;HTU21D;54120;53.504;49.426;2023-04-01T02:20:05;3.18;86.64
67192;HTU21D;54120;53.504;49.426;2023-04-01T02:22:46;3.16;86.66
67192;HTU21D;54120;53.504;49.426;2023-04-01T02:25:20;3.18;86.58
67192;HTU21D;54120;53.504;49.426;2023-04-01T02:27:48;3.23;86.26
67192;HTU21D;54120;53.504;49.426;2023-04-01T02:30:16;3.29;85.91
67192;HTU21D;54120;53.504;49.426;2023-04-01T02:32:43;3.36;85.23
67192;HTU21D;54120;53.504;49.426;2023-04-01T02:35:12;3.40;85.11
67192;HTU21D;54120;53.504;49.426;2023-04-01T02:37:39;3.38;85.32
67192;HTU21D;54120;53.504;49.426;2023-04-01T02:40:12;3.36;85.45
67192;HTU21D;54120;53.504;49.426;2023-04-01T02:42:39;3.41;84.96
67192;HTU21D;54120;53.504;49.426;2023-04-01T02:45:07;3.46;84.93
67192;HTU21D;54120;53.504;49.426;2023-04-01T02:47:33;3.52;84.24
67192;HTU21D;54120;53.504;49.426;2023-04-01T02:50:00;3.55;84.01
67192;HTU21D;54120;53.504;49.426;2023-04-01T02:52:28;3.61;83.74
67192;HTU21D;54120;53.504;49.426;2023-04-01T02:54:55;3.65;83.66
67192;HTU21D;54120;53.504;49.426;2023-04-01T02:57:21;3.73;83.49
67192;HTU21D;54120;53.504;49.426;2023-04-01T02:59:48;3.80;83.16
67192;HTU21D;54120;53.504;49.426;2023-04-01T03:02:14;3.89;82.82
67192;HTU21D;54120;53.504;49.426;2023-04-01T03:04:41;4.05;82.36
67192;HTU21D;54120;53.504;49.426;2023-04-01T03:07:09;4.13;81.84
67192;HTU21D;54120;53.504;49.426;2023-04-01T03:09:38;4.23;81.16
67192;HTU21D;54120;53.504;49.426;2023-04-01T03:12:05;4.35;80.92
67192;HTU21D;54120;53.504;49.426;2023-04-01T03:14:32;4.46;80.32
67192;HTU21D;54120;53.504;49.426;2023-04-01T03:16:58;4.56;80.11
67192;HTU21D;54120;53.504;49.426;2023-04-01T03:19:26;4.84;78.63
67192;HTU21D;54120;53.504;49.426;2023-04-01T03:21:52;5.11;77.47
67192;HTU21D;54120;53.504;49.426;2023-04-01T03:24:18;5.33;76.49
67192;HTU21D;54120;53.504;49.426;2023-04-01T03:26:44;5.46;75.22
67192;HTU21D;54120;53.504;49.426;2023-04-01T03:29:10;5.30;75.63
67192;HTU21D;54120;53.504;49.426;2023-04-01T03:31:37;5.34;76.29
67192;HTU21D;54120;53.504;49.426;2023-04-01T03:34:03;5.35;75.92
67192;HTU21D;54120;53.504;49.426;2023-04-01T03:36:29;5.81;74.59
67192;HTU21D;54120;53.504;49.426;2023-04-01T03:38:56;5.98;72.79
67192;HTU21D;54120;53.504;49.426;2023-04-01T03:41:22;7.77;67.68
67192;HTU21D;54120;53.504;49.426;2023-04-01T03:43:48;9.19;61.05
67192;HTU21D;54120;53.504;49.426;2023-04-01T03:46:18;9.93;57.84
67192;HTU21D;54120;53.504;49.426;2023-04-01T03:48:44;10.09;56.98
67192;HTU21D;54120;53.504;49.426;2023-04-01T03:51:11;9.45;58.64
67192;HTU21D;54120;53.504;49.426;2023-04-01T03:53:37;8.83;60.82
67192;HTU21D;54120;53.504;49.426;2023-04-01T03:56:05;7.76;64.06
67192;HTU21D;54120;53.504;49.426;2023-04-01T03:58:32;7.86;64.67
67192;HTU21D;54120;53.504;49.426;2023-04-01T04:00:59;7.91;63.51
67192;HTU21D;54120;53.504;49.426;2023-04-01T04:03:26;7.63;65.56
67192;HTU21D;54120;53.504;49.426;2023-04-01T04:05:52;7.78;63.82
67192;HTU21D;54120;53.504;49.426;2023-04-01T04:08:19;7.63;64.49
67192;HTU21D;54120;53.504;49.426;2023-04-01T04:10:47;7.81;63.88
67192;HTU21D;54120;53.504;49.426;2023-04-01T04:13:14;7.87;62.22
67192;HTU21D;54120;53.504;49.426;2023-04-01T04:15:41;8.24;61.62
67192;HTU21D;54120;53.504;49.426;2023-04-01T04:18:09;9.16;58.59
67192;HTU21D;54120;53.504;49.426;2023-04-01T04:20:35;9.77;55.91
67192;HTU21D;54120;53.504;49.426;2023-04-01T04:23:02;11.18;51.69
67192;HTU21D;54120;53.504;49.426;2023-04-01T04:25:29;11.59;50.23
67192;HTU21D;54120;53.504;49.426;2023-04-01T04:27:56;12.31;48.00
67192;HTU21D;54120;53.504;49.426;2023-04-01T04:30:23;11.89;48.65
67192;HTU21D;54120;53.504;49.426;2023-04-01T04:32:50;11.48;49.60
67192;HTU21D;54120;53.504;49.426;2023-04-01T04:35:16;11.99;48.13
67192;HTU21D;54120;53.504;49.426;2023-04-01T04:37:42;11.99;48.14
67192;HTU21D;54120;53.504;49.426;2023-04-01T04:40:09;12.97;46.21
67192;HTU21D;54120;53.504;49.426;2023-04-01T04:42:35;14.43;41.89
67192;HTU21D;54120;53.504;49.426;2023-04-01T04:45:02;14.18;42.77
67192;HTU21D;54120;53.504;49.426;2023-04-01T04:47:28;14.21;42.00
67192;HTU21D;54120;53.504;49.426;2023-04-01T04:49:55;14.70;40.46
67192;HTU21D;54120;53.504;49.426;2023-04-01T04:52:21;14.35;40.33
67192;HTU21D;54120;53.504;49.426;2023-04-01T04:54:48;15.91;37.81
67192;HTU21D;54120;53.504;49.426;2023-04-01T04:57:14;15.68;36.42
67192;HTU21D;54120;53.504;49.426;2023-04-01T04:59:40;15.49;37.27
67192;HTU21D;54120;53.504;49.426;2023-04-01T05:02:07;16.50;34.60
67192;HTU21D;54120;53.504;49.426;2023-04-01T05:04:36;16.10;35.32
67192;HTU21D;54120;53.504;49.426;2023-04-01T05:07:03;16.28;35.34
67192;HTU21D;54120;53.504;49.426;2023-04-01T05:09:29;16.51;33.92
67192;HTU21D;54120;53.504;49.426;2023-04-01T05:11:55;15.98;35.01
67192;HTU21D;54120;53.504;49.426;2023-04-01T05:14:21;14.83;36.89
67192;HTU21D;54120;53.504;49.426;2023-04-01T05:16:48;15.80;36.63
67192;HTU21D;54120;53.504;49.426;2023-04-01T05:19:15;15.85;34.92
67192;HTU21D;54120;53.504;49.426;2023-04-01T05:21:42;15.88;34.92
67192;HTU21D;54120;53.504;49.426;2023-04-01T05:24:08;16.29;33.49
67192;HTU21D;54120;53.504;49.426;2023-04-01T05:26:35;16.78;32.76
67192;HTU21D;54120;53.504;49.426;2023-04-01T05:29:04;16.21;33.43
67192;HTU21D;54120;53.504;49.426;2023-04-01T05:31:30;16.34;32.86
67192;HTU21D;54120;53.504;49.426;2023-04-01T05:33:56;17.62;31.70
67192;HTU21D;54120;53.504;49.426;2023-04-01T05:36:23;18.25;29.21
67192;HTU21D;54120;53.504;49.426;2023-04-01T05:38:49;18.86;28.04
67192;HTU21D;54120;53.504;49.426;2023-04-01T05:41:16;18.58;28.77
67192;HTU21D;54120;53.504;49.426;2023-04-01T05:43:43;18.82;28.32
67192;HTU21D;54120;53.504;49.426;2023-04-01T05:46:09;18.88;27.94
67192;HTU21D;54120;53.504;49.426;2023-04-01T05:48:35;17.81;29.59
67192;HTU21D;54120;53.504;49.426;2023-04-01T05:51:03;17.25;31.57
67192;HTU21D;54120;53.504;49.426;2023-04-01T05:53:32;17.02;32.11
67192;HTU21D;54120;53.504;49.426;2023-04-01T05:56:02;17.64;30.00
67192;HTU21D;54120;53.504;49.426;2023-04-01T05:58:28;18.40;27.10
67192;HTU21D;54120;53.504;49.426;2023-04-01T06:01:00;18.03;28.15
67192;HTU21D;54120;53.504;49.426;2023-04-01T06:03:28;18.34;27.85
67192;HTU21D;54120;53.504;49.426;2023-04-01T06:05:54;17.68;28.70
67192;HTU21D;54120;53.504;49.426;2023-04-01T06:08:20;18.48;27.75
67192;HTU21D;54120;53.504;49.426;2023-04-01T06:19:57;17.66;28.40
67192;HTU21D;54120;53.504;49.426;2023-04-01T06:25:26;17.03;30.32
67192;HTU21D;54120;53.504;49.426;2023-04-01T06:30:43;18.57;27.55
67192;HTU21D;54120;53.504;49.426;2023-04-01T06:46:58;18.53;27.52
67192;HTU21D;54120;53.504;49.426;2023-04-01T06:55:21;18.26;26.65
67192;HTU21D;54120;53.504;49.426;2023-04-01T06:57:52;17.96;27.83
67192;HTU21D;54120;53.504;49.426;2023-04-01T07:00:31;18.51;27.26
67192;HTU21D;54120;53.504;49.426;2023-04-01T07:05:40;18.83;27.64
67192;HTU21D;54120;53.504;49.426;2023-04-01T07:08:10;19.23;25.57
67192;HTU21D;54120;53.504;49.426;2023-04-01T07:11:01;18.88;25.33
67192;HTU21D;54120;53.504;49.426;2023-04-01T07:14:06;18.80;25.94
67192;HTU21D;54120;53.504;49.426;2023-04-01T07:16:48;19.36;24.58
67192;HTU21D;54120;53.504;49.426;2023-04-01T07:19:30;19.81;24.56
67192;HTU21D;54120;53.504;49.426;2023-04-01T07:24:39;17.81;26.73
67192;HTU21D;54120;53.504;49.426;2023-04-01T07:27:11;18.03;26.86
67192;HTU21D;54120;53.504;49.426;2023-04-01T07:29:37;17.98;27.16
67192;HTU21D;54120;53.504;49.426;2023-04-01T07:43:15;18.86;26.81
67192;HTU21D;54120;53.504;49.426;2023-04-01T07:45:58;16.13;32.25
67192;HTU21D;54120;53.504;49.426;2023-04-01T07:48:38;13.12;37.97
67192;HTU21D;54120;53.504;49.426;2023-04-01T07:51:29;12.28;41.69
67192;HTU21D;54120;53.504;49.426;2023-04-01T07:59:40;11.84;43.16
67192;HTU21D;54120;53.504;49.426;2023-04-01T08:02:25;11.87;41.79
67192;HTU21D;54120;53.504;49.426;2023-04-01T08:07:29;11.92;42.30
67192;HTU21D;54120;53.504;49.426;2023-04-01T08:10:25;11.70;43.78
67192;HTU21D;54120;53.504;49.426;2023-04-01T08:13:30;11.97;42.50
67192;HTU21D;54120;53.504;49.426;2023-04-01T08:16:17;11.78;43.90
67192;HTU21D;54120;53.504;49.426;2023-04-01T08:21:40;11.99;44.61
67192;HTU21D;54120;53.504;49.426;2023-04-01T08:26:55;11.96;41.98
67192;HTU21D;54120;53.504;49.426;2023-04-01T08:29:38;11.76;43.07
67192;HTU21D;54120;53.504;49.426;2023-04-01T08:32:06;11.64;43.21
67192;HTU21D;54120;53.504;49.426;2023-04-01T08:34:38;11.89;44.73
67192;HTU21D;54120;53.504;49.426;2023-04-01T08:37:22;12.26;42.37
67192;HTU21D;54120;53.504;49.426;2023-04-01T08:42:49;12.34;42.81
67192;HTU21D;54120;53.504;49.426;2023-04-01T08:59:54;12.17;42.84
67192;HTU21D;54120;53.504;49.426;2023-04-01T09:08:18;12.57;41.86
67192;HTU21D;54120;53.504;49.426;2023-04-01T09:43:57;13.15;38.59
67192;HTU21D;54120;53.504;49.426;2023-04-01T09:52:21;12.71;39.09
67192;HTU21D;54120;53.504;49.426;2023-04-01T09:57:40;13.07;38.82
67192;HTU21D;54120;53.504;49.426;2023-04-01T10:35:38;13.68;36.51
67192;HTU21D;54120;53.504;49.426;2023-04-01T10:43:56;13.49;35.64
67192;HTU21D;54120;53.504;49.426;2023-04-01T10:54:49;14.00;35.89
67192;HTU21D;54120;53.504;49.426;2023-04-01T11:27:58;13.92;36.97
67192;HTU21D;54120;53.504;49.426;2023-04-01T11:33:34;13.52;36.98
67192;HTU21D;54120;53.504;49.426;2023-04-01T11:39:20;13.48;37.08
67192;HTU21D;54120;53.504;49.426;2023-04-01T11:44:29;13.79;36.11
67192;HTU21D;54120;53.504;49.426;2023-04-01T11:47:18;13.56;36.10
67192;HTU21D;54120;53.504;49.426;2023-04-01T12:00:34;13.34;37.74
67192;HTU21D;54120;53.504;49.426;2023-04-01T12:03:25;13.24;38.54
67192;HTU21D;54120;53.504;49.426;2023-04-01T12:11:45;13.38;38.56
67192;HTU21D;54120;53.504;49.426;2023-04-01T12:22:42;13.02;39.84
67192;HTU21D;54120;53.504;49.426;2023-04-01T12:28:00;12.86;40.37
67192;HTU21D;54120;53.504;49.426;2023-04-01T12:31:02;12.76;40.98
67192;HTU21D;54120;53.504;49.426;2023-04-01T12:33:52;12.80;41.25
67192;HTU21D;54120;53.504;49.426;2023-04-01T12:36:35;12.73;41.29
67192;HTU21D;54120;53.504;49.426;2023-04-01T12:39:29;12.66;41.10
67192;HTU21D;54120;53.504;49.426;2023-04-01T12:42:02;12.63;40.65
67192;HTU21D;54120;53.504;49.426;2023-04-01T12:53:29;12.47;41.66
67192;HTU21D;54120;53.504;49.426;2023-04-01T12:56:09;12.46;41.64
67192;HTU21D;54120;53.504;49.426;2023-04-01T13:05:18;12.36;42.13
67192;HTU21D;54120;53.504;49.426;2023-04-01T13:16:16;12.38;42.14
67192;HTU21D;54120;53.504;49.426;2023-04-01T13:27:09;11.86;43.45
67192;HTU21D;54120;53.504;49.426;2023-04-01T13:29:41;11.82;44.50
67192;HTU21D;54120;53.504;49.426;2023-04-01T13:32:20;11.81;43.56
67192;HTU21D;54120;53.504;49.426;2023-04-01T13:35:16;11.72;43.78
67192;HTU21D;54120;53.504;49.426;2023-04-01T13:43:25;11.52;46.00
67192;HTU21D;54120;53.504;49.426;2023-04-01T14:10:31;11.08;45.38
67192;HTU21D;54120;53.504;49.426;2023-04-01T14:15:37;10.97;45.80
67192;HTU21D;54120;53.504;49.426;2023-04-01T14:18:30;10.92;46.15
67192;HTU21D;54120;53.504;49.426;2023-04-01T14:40:37;10.45;48.12
67192;HTU21D;54120;53.504;49.426;2023-04-01T14:43:33;10.38;48.65
67192;HTU21D;54120;53.504;49.426;2023-04-01T14:51:29;10.20;49.56
67192;HTU21D;54120;53.504;49.426;2023-04-01T14:56:42;10.13;50.56
67192;HTU21D;54120;53.504;49.426;2023-04-01T15:01:44;10.01;49.73
67192;HTU21D;54120;53.504;49.426;2023-04-01T15:12:58;9.91;50.35
67192;HTU21D;54120;53.504;49.426;2023-04-01T15:35:26;9.40;51.55
67192;HTU21D;54120;53.504;49.426;2023-04-01T15:38:14;9.31;51.84
67192;HTU21D;54120;53.504;49.426;2023-04-01T15:43:48;9.20;52.80
67192;HTU21D;54120;53.504;49.426;2023-04-01T15:46:49;9.06;53.79
67192;HTU21D;54120;53.504;49.426;2023-04-01T15:51:48;8.96;53.56
67192;HTU21D;54120;53.504;49.426;2023-04-01T16:02:52;8.60;54.26
67192;HTU21D;54120;53.504;49.426;2023-04-01T16:13:58;8.58;54.26
67192;HTU21D;54120;53.504;49.426;2023-04-01T16:19:45;8.55;54.55
67192;HTU21D;54120;53.504;49.426;2023-04-01T16:22:17;8.41;54.78
67192;HTU21D;54120;53.504;49.426;2023-04-01T16:24:48;8.33;55.26
67192;HTU21D;54120;53.504;49.426;2023-04-01T16:27:26;8.33;55.20
67192;HTU21D;54120;53.504;49.426;2023-04-01T16:30:32;8.30;55.94
67192;HTU21D;54120;53.504;49.426;2023-04-01T16:38:41;8.32;56.19
67192;HTU21D;54120;53.504;49.426;2023-04-01T16:41:33;8.52;56.17
67192;HTU21D;54120;53.504;49.426;2023-04-01T16:44:18;8.51;56.16
67192;HTU21D;54120;53.504;49.426;2023-04-01T16:46:48;8.47;57.39
67192;HTU21D;54120;53.504;49.426;2023-04-01T16:49:24;8.46;57.40
67192;HTU21D;54120;53.504;49.426;2023-04-01T16:51:55;8.51;57.42
67192;HTU21D;54120;53.504;49.426;2023-04-01T16:54:48;8.48;57.67
67192;HTU21D;54120;53.504;49.426;2023-04-01T17:02:26;8.43;58.53
67192;HTU21D;54120;53.504;49.426;2023-04-01T17:10:48;8.07;59.14
67192;HTU21D;54120;53.504;49.426;2023-04-01T17:27:20;8.12;59.55
67192;HTU21D;54120;53.504;49.426;2023-04-01T17:36:04;8.31;59.40
67192;HTU21D;54120;53.504;49.426;2023-04-01T17:58:19;8.35;59.33
67192;HTU21D;54120;53.504;49.426;2023-04-01T18:00:51;8.34;59.57
67192;HTU21D;54120;53.504;49.426;2023-04-01T18:20:41;8.18;61.53
67192;HTU21D;54120;53.504;49.426;2023-04-01T18:23:36;8.09;62.27
67192;HTU21D;54120;53.504;49.426;2023-04-01T18:26:10;8.04;62.73
67192;HTU21D;54120;53.504;49.426;2023-04-01T18:28:43;8.04;63.10
67192;HTU21D;54120;53.504;49.426;2023-04-01T18:31:18;8.08;62.95
67192;HTU21D;54120;53.504;49.426;2023-04-01T18:34:10;8.07;63.11
67192;HTU21D;54120;53.504;49.426;2023-04-01T18:36:53;8.02;63.44
67192;HTU21D;54120;53.504;49.426;2023-04-01T18:39:41;7.91;63.93
67192;HTU21D;54120;53.504;49.426;2023-04-01T18:42:27;7.85;64.46
67192;HTU21D;54120;53.504;49.426;2023-04-01T18:44:56;7.81;64.43
67192;HTU21D;54120;53.504;49.426;2023-04-01T18:52:37;7.73;64.97
67192;HTU21D;54120;53.504;49.426;2023-04-01T18:57:58;7.65;65.42
67192;HTU21D;54120;53.504;49.426;2023-04-01T19:00:40;7.63;66.00
67192;HTU21D;54120;53.504;49.426;2023-04-01T19:05:39;7.58;65.72
67192;HTU21D;54120;53.504;49.426;2023-04-01T19:13:32;7.43;66.37
67192;HTU21D;54120;53.504;49.426;2023-04-01T19:21:48;7.55;65.98
67192;HTU21D;54120;53.504;49.426;2023-04-01T19:33:00;7.35;66.75
67192;HTU21D;54120;53.504;49.426;2023-04-01T19:35:47;7.29;66.92
67192;HTU21D;54120;53.504;49.426;2023-04-01T19:41:39;7.22;66.94
67192;HTU21D;54120;53.504;49.426;2023-04-01T19:50:01;7.15;66.78
67192;HTU21D;54120;53.504;49.426;2023-04-01T19:52:38;7.17;66.07
67192;HTU21D;54120;53.504;49.426;2023-04-01T20:01:20;7.13;65.30
67192;HTU21D;54120;53.504;49.426;2023-04-01T20:03:58;7.09;65.29
67192;HTU21D;54120;53.504;49.426;2023-04-01T20:12:06;7.03;64.83
67192;HTU21D;54120;53.504;49.426;2023-04-01T20:25:16;7.04;62.53
67192;HTU21D;54120;53.504;49.426;2023-04-01T20:52:49;7.07;59.12
67192;HTU21D;54120;53.504;49.426;2023-04-01T20:55:30;7.03;59.70
67192;HTU21D;54120;53.504;49.426;2023-04-01T21:01:22;7.00;59.46
67192;HTU21D;54120;53.504;49.426;2023-04-01T21:04:15;6.99;59.51
67192;HTU21D;54120;53.504;49.426;2023-04-01T21:06:48;7.00;59.14
67192;HTU21D;54120;53.504;49.426;2023-04-01T21:17:28;7.00;59.23
67192;HTU21D;54120;53.504;49.426;2023-04-01T21:20:22;7.03;59.11
67192;HTU21D;54120;53.504;49.426;2023-04-01T21:37:26;6.99;59.13
67192;HTU21D;54120;53.504;49.426;2023-04-01T21:40:22;6.99;59.24
67192;HTU21D;54120;53.504;49.426;2023-04-01T21:46:08;6.94;59.41
67192;HTU21D;54120;53.504;49.426;2023-04-01T21:55:04;6.88;59.41
67192;HTU21D;54120;53.504;49.426;2023-04-01T22:00:32;7.01;59.09
67192;HTU21D;54120;53.504;49.426;2023-04-01T22:03:18;7.05;58.95
67192;HTU21D;54120;53.504;49.426;2023-04-01T22:14:34;7.05;59.68
67192;HTU21D;54120;53.504;49.426;2023-04-01T22:17:29;7.04;59.59
67192;HTU21D;54120;53.504;49.426;2023-04-01T22:28:22;6.87;60.57
67192;HTU21D;54120;53.504;49.426;2023-04-01T22:30:52;6.88;60.61
67192;HTU21D;54120;53.504;49.426;2023-04-01T22:36:27;6.93;60.44
67192;HTU21D;54120;53.504;49.426;2023-04-01T22:44:57;6.85;61.07
67192;HTU21D;54120;53.504;49.426;2023-04-01T22:52:43;6.79;61.51
67192;HTU21D;54120;53.504;49.426;2023-04-01T22:55:25;6.75;61.67
67192;HTU21D;54120;53.504;49.426;2023-04-01T23:01:06;6.74;61.96
67192;HTU21D;54120;53.504;49.426;2023-04-01T23:03:44;6.75;62.01
67192;HTU21D;54120;53.504;49.426;2023-04-01T23:06:27;6.78;61.96
67192;HTU21D;54120;53.504;49.426;2023-04-01T23:14:32;6.60;62.57
67192;HTU21D;54120;53.504;49.426;2023-04-01T23:24:56;6.56;63.44
67192;HTU21D;54120;53.504;49.426;2023-04-01T23:27:37;6.61;62.81
67192;HTU21D;54120;53.504;49.426;2023-04-01T23:35:52;6.72;62.57
67192;HTU21D;54120;53.504;49.426;2023-04-01T23:38:24;6.69;62.59
67192;HTU21D;54120;53.504;49.426;2023-04-01T23:40:53;6.68;62.66
67192;HTU21D;54120;53.504;49.426;2023-04-01T23:43:29;6.68;62.73
67192;HTU21D;54120;53.504;49.426;2023-04-01T23:46:00;6.66;62.76
67192;HTU21D;54120;53.504;49.426;2023-04-01T23:48:44;6.65;62.82
67192;HTU21D;54120;53.504;49.426;2023-04-01T23:53:45;6.61;63.03
67192;HTU21D;54120;53.504;49.426;2023-04-01T23:56:16;6.63;63.06
67192;HTU21D;54120;53.504;49.426;2023-04-01T23:58:50;6.61;63.27
